createdAt,value
2017-08-07T00:00:17.510Z,0
2017-08-07T00:01:27.958Z,0
2017-08-07T00:02:38.486Z,0
2017-08-07T00:03:49.019Z,0
2017-08-07T00:04:59.739Z,0
2017-08-07T00:06:10.195Z,0
2017-08-07T00:07:20.716Z,0
2017-08-07T00:08:30.721Z,0
2017-08-07T00:09:41.218Z,0
2017-08-07T00:10:51.964Z,0
2017-08-07T00:12:02.446Z,0
2017-08-07T00:13:12.618Z,0
2017-08-07T00:14:23.085Z,0
2017-08-07T00:15:33.567Z,0
2017-08-07T00:16:44.257Z,0
2017-08-07T00:17:54.729Z,0
2017-08-07T00:19:04.581Z,0
2017-08-07T00:20:15.036Z,0
2017-08-07T00:21:25.604Z,0
2017-08-07T00:22:36.316Z,0
2017-08-07T00:23:46.838Z,0
2017-08-07T00:24:56.877Z,0
2017-08-07T00:26:07.426Z,0
2017-08-07T00:27:17.947Z,0
2017-08-07T00:28:28.672Z,0
2017-08-07T00:29:39.121Z,0
2017-08-07T00:30:49.556Z,0
2017-08-07T00:32:00.062Z,0
2017-08-07T00:33:10.530Z,0
2017-08-07T00:34:21.310Z,0
2017-08-07T00:35:31.944Z,0
2017-08-07T00:36:42.393Z,0
2017-08-07T00:37:52.938Z,0
2017-08-07T00:39:03.601Z,0
2017-08-07T00:40:14.336Z,0
2017-08-07T00:41:24.792Z,0
2017-08-07T00:42:34.814Z,0
2017-08-07T00:43:45.278Z,0
2017-08-07T00:44:55.893Z,0
2017-08-07T00:46:06.618Z,0
2017-08-07T00:47:17.103Z,0
2017-08-07T00:48:27.538Z,0
2017-08-07T00:49:37.604Z,0
2017-08-07T00:50:48.147Z,0
2017-08-07T00:51:58.948Z,0
2017-08-07T00:53:09.432Z,0
2017-08-07T00:54:20.005Z,0
2017-08-07T00:55:30.187Z,0
2017-08-07T00:56:40.651Z,0
2017-08-07T00:57:50.974Z,0
2017-08-07T00:59:01.444Z,0
2017-08-07T01:00:12.008Z,0
2017-08-07T01:01:22.463Z,0
2017-08-07T01:02:32.606Z,0
2017-08-07T01:03:43.339Z,0
2017-08-07T01:04:53.894Z,0
2017-08-07T01:06:04.354Z,0
2017-08-07T01:07:14.811Z,0
2017-08-07T01:08:25.266Z,0
2017-08-07T01:09:35.988Z,0
2017-08-07T01:10:46.430Z,0
2017-08-07T01:11:57.122Z,0
2017-08-07T01:13:07.570Z,0
2017-08-07T01:14:18.096Z,0
2017-08-07T01:15:28.806Z,0
2017-08-07T01:16:39.264Z,0
2017-08-07T01:17:50.042Z,0
2017-08-07T01:19:00.511Z,0
2017-08-07T01:20:10.615Z,0
2017-08-07T01:21:21.363Z,0
2017-08-07T01:22:31.511Z,0
2017-08-07T01:23:41.700Z,0
2017-08-07T01:24:52.148Z,0
2017-08-07T01:26:02.613Z,0
2017-08-07T01:27:13.402Z,0
2017-08-07T01:28:23.417Z,0
2017-08-07T01:29:33.466Z,0
2017-08-07T01:30:43.902Z,0
2017-08-07T01:31:53.838Z,0
2017-08-07T01:33:04.571Z,0
2017-08-07T01:34:14.749Z,0
2017-08-07T01:35:25.234Z,0
2017-08-07T01:36:35.675Z,0
2017-08-07T01:37:46.139Z,0
2017-08-07T01:38:56.856Z,0
2017-08-07T01:40:07.435Z,0
2017-08-07T01:41:17.268Z,0
2017-08-07T01:42:27.774Z,0
2017-08-07T01:43:38.223Z,0
2017-08-07T01:44:48.726Z,0
2017-08-07T01:45:58.954Z,0
2017-08-07T01:47:09.658Z,0
2017-08-07T01:48:20.106Z,0
2017-08-07T01:49:30.628Z,0
2017-08-07T01:50:41.378Z,0
2017-08-07T01:51:51.757Z,0
2017-08-07T01:53:01.896Z,0
2017-08-07T01:54:12.447Z,0
2017-08-07T01:55:22.573Z,0
2017-08-07T01:56:33.315Z,0
2017-08-07T01:57:43.329Z,0
2017-08-07T01:58:53.780Z,0
2017-08-07T02:00:04.245Z,0
2017-08-07T02:01:14.706Z,0
2017-08-07T02:02:25.445Z,0
2017-08-07T02:03:35.579Z,0
2017-08-07T02:04:46.036Z,0
2017-08-07T02:05:56.774Z,0
2017-08-07T02:07:07.252Z,0
2017-08-07T02:08:18.023Z,0
2017-08-07T02:09:28.468Z,0
2017-08-07T02:10:38.672Z,0
2017-08-07T02:11:48.930Z,0
2017-08-07T02:12:59.067Z,0
2017-08-07T02:14:09.801Z,0
2017-08-07T02:15:20.343Z,0
2017-08-07T02:16:30.479Z,0
2017-08-07T02:17:40.940Z,0
2017-08-07T02:18:51.550Z,0
2017-08-07T02:20:02.306Z,0
2017-08-07T02:21:12.883Z,0
2017-08-07T02:22:22.899Z,0
2017-08-07T02:23:33.501Z,0
2017-08-07T02:24:43.973Z,0
2017-08-07T02:25:54.970Z,0
2017-08-07T02:27:05.628Z,0
2017-08-07T02:28:16.205Z,0
2017-08-07T02:29:26.663Z,0
2017-08-07T02:30:37.136Z,0
2017-08-07T02:31:47.535Z,0
2017-08-07T02:32:57.985Z,0
2017-08-07T02:34:08.500Z,0
2017-08-07T02:35:19.052Z,0
2017-08-07T02:36:29.502Z,0
2017-08-07T02:37:40.205Z,0
2017-08-07T02:38:50.370Z,0
2017-08-07T02:40:00.895Z,0
2017-08-07T02:41:11.370Z,0
2017-08-07T02:42:21.493Z,0
2017-08-07T02:43:32.194Z,0
2017-08-07T02:44:42.652Z,0
2017-08-07T02:45:53.140Z,0
2017-08-07T02:47:03.744Z,0
2017-08-07T02:48:13.890Z,0
2017-08-07T02:49:24.670Z,0
2017-08-07T02:50:35.143Z,0
2017-08-07T02:51:45.280Z,0
2017-08-07T02:52:55.729Z,0
2017-08-07T02:54:06.378Z,0
2017-08-07T02:55:17.214Z,0
2017-08-07T02:56:27.651Z,0
2017-08-07T02:57:38.158Z,0
2017-08-07T02:58:48.664Z,0
2017-08-07T02:59:59.138Z,0
2017-08-07T03:01:09.951Z,0
2017-08-07T03:02:20.650Z,0
2017-08-07T03:03:31.152Z,0
2017-08-07T03:04:41.607Z,0
2017-08-07T03:05:52.083Z,0
2017-08-07T03:07:02.837Z,0
2017-08-07T03:08:13.294Z,0
2017-08-07T03:09:23.746Z,0
2017-08-07T03:10:34.216Z,0
2017-08-07T03:11:44.668Z,0
2017-08-07T03:12:55.460Z,0
2017-08-07T03:14:05.949Z,0
2017-08-07T03:15:16.389Z,0
2017-08-07T03:16:26.593Z,0
2017-08-07T03:17:37.285Z,0
2017-08-07T03:18:48.163Z,0
2017-08-07T03:19:58.717Z,0
2017-08-07T03:21:08.850Z,0
2017-08-07T03:22:19.608Z,0
2017-08-07T03:23:30.076Z,0
2017-08-07T03:24:40.825Z,0
2017-08-07T03:25:51.265Z,0
2017-08-07T03:27:01.713Z,0
2017-08-07T03:28:12.182Z,0
2017-08-07T03:29:22.640Z,0
2017-08-07T03:30:33.400Z,0
2017-08-07T03:31:43.866Z,0
2017-08-07T03:32:54.390Z,0
2017-08-07T03:34:04.856Z,0
2017-08-07T03:35:15.306Z,0
2017-08-07T03:36:25.589Z,0
2017-08-07T03:37:35.415Z,5
2017-08-07T03:38:45.892Z,5
2017-08-07T03:39:56.378Z,5
2017-08-07T03:41:06.957Z,5
2017-08-07T03:42:17.387Z,5
2017-08-07T03:43:27.862Z,5
2017-08-07T03:44:38.302Z,10
2017-08-07T03:45:48.799Z,10
2017-08-07T03:46:59.259Z,10
2017-08-07T03:48:09.970Z,10
2017-08-07T03:49:20.486Z,10
2017-08-07T03:50:30.939Z,15
2017-08-07T03:51:40.665Z,15
2017-08-07T03:52:51.249Z,15
2017-08-07T03:54:01.945Z,15
2017-08-07T03:55:12.524Z,20
2017-08-07T03:56:22.662Z,20
2017-08-07T03:57:33.142Z,20
2017-08-07T03:58:43.438Z,20
2017-08-07T03:59:54.146Z,25
2017-08-07T04:01:04.682Z,25
2017-08-07T04:02:15.147Z,25
2017-08-07T04:03:25.610Z,25
2017-08-07T04:04:36.075Z,30
2017-08-07T04:05:46.799Z,30
2017-08-07T04:06:57.293Z,30
2017-08-07T04:08:07.758Z,35
2017-08-07T04:09:18.223Z,35
2017-08-07T04:10:28.481Z,35
2017-08-07T04:11:39.216Z,40
2017-08-07T04:12:49.663Z,40
2017-08-07T04:14:00.295Z,40
2017-08-07T04:15:10.770Z,40
2017-08-07T04:16:21.219Z,45
2017-08-07T04:17:31.910Z,45
2017-08-07T04:18:42.081Z,45
2017-08-07T04:19:52.825Z,50
2017-08-07T04:21:03.387Z,50
2017-08-07T04:22:13.841Z,50
2017-08-07T04:23:24.570Z,55
2017-08-07T04:24:35.041Z,55
2017-08-07T04:25:45.522Z,55
2017-08-07T04:26:55.859Z,60
2017-08-07T04:28:06.051Z,60
2017-08-07T04:29:16.808Z,60
2017-08-07T04:30:27.257Z,65
2017-08-07T04:31:37.821Z,65
2017-08-07T04:32:48.279Z,65
2017-08-07T04:33:58.749Z,70
2017-08-07T04:35:09.459Z,70
2017-08-07T04:36:19.918Z,70
2017-08-07T04:37:30.404Z,75
2017-08-07T04:38:40.864Z,75
2017-08-07T04:39:51.378Z,80
2017-08-07T04:41:01.796Z,80
2017-08-07T04:42:11.985Z,80
2017-08-07T04:43:22.656Z,90
2017-08-07T04:44:32.713Z,100
2017-08-07T04:45:43.153Z,100
2017-08-07T04:46:53.866Z,90
2017-08-07T04:48:04.539Z,90
2017-08-07T04:49:14.583Z,95
2017-08-07T04:50:25.274Z,95
2017-08-07T04:51:35.754Z,95
2017-08-07T04:52:46.202Z,95
2017-08-07T04:53:56.652Z,95
2017-08-07T04:55:07.152Z,95
2017-08-07T04:56:17.608Z,100
2017-08-07T04:57:28.084Z,100
2017-08-07T04:58:38.816Z,100
2017-08-07T04:59:48.965Z,105
2017-08-07T05:00:59.415Z,105
2017-08-07T05:02:09.908Z,110
2017-08-07T05:03:20.359Z,110
2017-08-07T05:04:31.111Z,110
2017-08-07T05:05:41.560Z,115
2017-08-07T05:06:52.008Z,115
2017-08-07T05:08:02.458Z,115
2017-08-07T05:09:12.722Z,125
2017-08-07T05:10:23.463Z,120
2017-08-07T05:11:33.936Z,120
2017-08-07T05:12:44.391Z,125
2017-08-07T05:13:54.540Z,125
2017-08-07T05:15:04.680Z,125
2017-08-07T05:16:15.426Z,130
2017-08-07T05:17:25.930Z,130
2017-08-07T05:18:36.481Z,130
2017-08-07T05:19:47.033Z,135
2017-08-07T05:20:57.497Z,135
2017-08-07T05:22:08.458Z,135
2017-08-07T05:23:18.967Z,140
2017-08-07T05:24:29.545Z,140
2017-08-07T05:25:39.999Z,145
2017-08-07T05:26:50.599Z,165
2017-08-07T05:28:01.330Z,160
2017-08-07T05:29:11.804Z,150
2017-08-07T05:30:22.933Z,150
2017-08-07T05:31:33.375Z,160
2017-08-07T05:32:44.074Z,150
2017-08-07T05:33:54.787Z,150
2017-08-07T05:35:05.259Z,150
2017-08-07T05:36:15.725Z,150
2017-08-07T05:37:26.219Z,150
2017-08-07T05:38:36.226Z,155
2017-08-07T05:39:46.517Z,155
2017-08-07T05:40:57.004Z,155
2017-08-07T05:42:07.087Z,160
2017-08-07T05:43:17.558Z,160
2017-08-07T05:44:28.027Z,160
2017-08-07T05:45:38.747Z,165
2017-08-07T05:46:49.219Z,165
2017-08-07T05:47:59.809Z,165
2017-08-07T05:49:10.260Z,165
2017-08-07T05:50:20.753Z,170
2017-08-07T05:51:31.512Z,170
2017-08-07T05:52:42.100Z,170
2017-08-07T05:53:52.789Z,170
2017-08-07T05:55:03.245Z,175
2017-08-07T05:56:13.714Z,175
2017-08-07T05:57:24.547Z,175
2017-08-07T05:58:34.984Z,175
2017-08-07T05:59:45.502Z,180
2017-08-07T06:00:55.377Z,180
2017-08-07T06:02:05.909Z,175
2017-08-07T06:03:16.626Z,175
2017-08-07T06:04:27.070Z,180
2017-08-07T06:05:37.546Z,180
2017-08-07T06:06:48.007Z,180
2017-08-07T06:07:58.696Z,180
2017-08-07T06:09:09.427Z,180
2017-08-07T06:10:19.563Z,185
2017-08-07T06:11:30.103Z,185
2017-08-07T06:12:40.667Z,185
2017-08-07T06:13:51.312Z,190
2017-08-07T06:15:02.223Z,185
2017-08-07T06:16:12.673Z,185
2017-08-07T06:17:23.121Z,190
2017-08-07T06:18:33.584Z,190
2017-08-07T06:19:44.129Z,190
2017-08-07T06:20:54.831Z,190
2017-08-07T06:22:05.275Z,190
2017-08-07T06:23:15.748Z,190
2017-08-07T06:24:25.873Z,190
2017-08-07T06:25:35.631Z,190
2017-08-07T06:26:46.364Z,190
2017-08-07T06:27:56.816Z,195
2017-08-07T06:29:07.300Z,195
2017-08-07T06:30:17.767Z,195
2017-08-07T06:31:28.251Z,195
2017-08-07T06:32:38.995Z,195
2017-08-07T06:33:49.452Z,195
2017-08-07T06:34:59.972Z,205
2017-08-07T06:36:42.277Z,200
2017-08-07T06:37:53.126Z,200
2017-08-07T06:39:03.289Z,200
2017-08-07T06:40:13.736Z,205
2017-08-07T06:41:23.912Z,205
2017-08-07T06:42:34.409Z,205
2017-08-07T06:43:45.120Z,205
2017-08-07T06:44:55.582Z,210
2017-08-07T06:46:05.436Z,215
2017-08-07T06:47:15.870Z,210
2017-08-07T06:48:25.697Z,215
2017-08-07T06:49:36.115Z,215
2017-08-07T06:50:46.576Z,215
2017-08-07T06:51:57.042Z,215
2017-08-07T06:53:07.209Z,215
2017-08-07T06:54:17.751Z,215
2017-08-07T06:55:28.148Z,215
2017-08-07T06:56:38.674Z,215
2017-08-07T06:57:49.181Z,220
2017-08-07T06:58:59.634Z,220
2017-08-07T07:00:10.096Z,220
2017-08-07T07:01:20.915Z,220
2017-08-07T07:02:30.768Z,220
2017-08-07T07:03:41.314Z,220
2017-08-07T07:04:51.803Z,220
2017-08-07T07:06:02.312Z,225
2017-08-07T07:07:13.031Z,225
2017-08-07T07:08:23.707Z,225
2017-08-07T07:09:34.164Z,225
2017-08-07T07:10:44.663Z,230
2017-08-07T07:11:55.129Z,230
2017-08-07T07:13:05.913Z,230
2017-08-07T07:14:16.460Z,230
2017-08-07T07:15:26.612Z,230
2017-08-07T07:16:37.172Z,230
2017-08-07T07:17:47.623Z,230
2017-08-07T07:18:58.563Z,235
2017-08-07T07:20:09.021Z,235
2017-08-07T07:21:19.559Z,235
2017-08-07T07:22:30.010Z,235
2017-08-07T07:23:40.464Z,240
2017-08-07T07:24:51.283Z,240
2017-08-07T07:26:01.763Z,240
2017-08-07T07:27:12.238Z,240
2017-08-07T07:28:22.717Z,245
2017-08-07T07:29:33.221Z,245
2017-08-07T07:30:43.642Z,245
2017-08-07T07:31:54.092Z,250
2017-08-07T07:33:04.668Z,250
2017-08-07T07:34:15.119Z,250
2017-08-07T07:35:25.595Z,250
2017-08-07T07:36:36.454Z,255
2017-08-07T07:37:47.065Z,255
2017-08-07T07:38:57.518Z,255
2017-08-07T07:40:08.285Z,260
2017-08-07T07:41:18.746Z,260
2017-08-07T07:42:29.477Z,265
2017-08-07T07:43:39.960Z,265
2017-08-07T07:44:50.420Z,265
2017-08-07T07:46:00.924Z,270
2017-08-07T07:47:11.394Z,270
2017-08-07T07:48:22.102Z,275
2017-08-07T07:49:32.615Z,280
2017-08-07T07:50:43.083Z,280
2017-08-07T07:51:53.552Z,280
2017-08-07T07:53:04.005Z,280
2017-08-07T07:54:14.444Z,285
2017-08-07T07:55:25.000Z,285
2017-08-07T07:56:35.478Z,290
2017-08-07T07:57:45.959Z,295
2017-08-07T07:58:56.161Z,295
2017-08-07T08:00:06.920Z,300
2017-08-07T08:01:17.388Z,305
2017-08-07T08:02:27.577Z,305
2017-08-07T08:03:38.106Z,310
2017-08-07T08:04:48.699Z,315
2017-08-07T08:05:59.394Z,315
2017-08-07T08:07:10.854Z,320
2017-08-07T08:08:21.020Z,320
2017-08-07T08:09:31.511Z,325
2017-08-07T08:10:42.063Z,330
2017-08-07T08:11:52.613Z,330
2017-08-07T08:13:03.083Z,335
2017-08-07T08:14:13.666Z,340
2017-08-07T08:15:24.132Z,340
2017-08-07T08:16:34.287Z,345
2017-08-07T08:17:45.027Z,345
2017-08-07T08:18:55.557Z,345
2017-08-07T08:20:06.985Z,350
2017-08-07T08:21:17.128Z,350
2017-08-07T08:22:27.607Z,355
2017-08-07T08:23:38.326Z,355
2017-08-07T08:24:48.030Z,360
2017-08-07T08:25:58.533Z,365
2017-08-07T08:27:08.555Z,375
2017-08-07T08:28:19.042Z,395
2017-08-07T08:29:29.742Z,410
2017-08-07T08:30:39.879Z,435
2017-08-07T08:31:50.373Z,455
2017-08-07T08:33:00.825Z,480
2017-08-07T08:34:10.964Z,505
2017-08-07T08:35:20.947Z,525
2017-08-07T08:36:31.445Z,545
2017-08-07T08:37:42.035Z,560
2017-08-07T08:38:52.525Z,585
2017-08-07T08:40:03.067Z,595
2017-08-07T08:41:13.781Z,620
2017-08-07T08:42:24.273Z,1230
2017-08-07T08:43:34.755Z,2120
2017-08-07T08:44:45.219Z,2220
2017-08-07T08:45:55.705Z,2255
2017-08-07T08:47:06.431Z,2280
2017-08-07T08:48:16.633Z,2395
2017-08-07T08:49:27.157Z,2575
2017-08-07T08:50:37.629Z,2635
2017-08-07T08:51:48.116Z,2720
2017-08-07T08:52:58.845Z,2775
2017-08-07T08:54:09.330Z,3205
2017-08-07T08:55:19.810Z,3490
2017-08-07T08:56:31.392Z,3320
2017-08-07T08:57:41.468Z,3115
2017-08-07T08:58:51.464Z,3170
2017-08-07T09:00:01.615Z,2930
2017-08-07T09:01:12.097Z,2460
2017-08-07T09:02:22.556Z,2415
2017-08-07T09:03:33.283Z,2270
2017-08-07T09:04:44.006Z,2425
2017-08-07T09:05:54.508Z,2540
2017-08-07T09:07:05.077Z,2710
2017-08-07T09:08:15.674Z,2885
2017-08-07T09:09:26.153Z,3025
2017-08-07T09:10:37.133Z,2980
2017-08-07T09:11:47.859Z,2970
2017-08-07T09:12:58.454Z,2920
2017-08-07T09:14:08.938Z,1480
2017-08-07T09:15:19.523Z,1520
2017-08-07T09:16:30.242Z,2630
2017-08-07T09:17:40.423Z,3060
2017-08-07T09:18:51.024Z,3340
2017-08-07T09:20:01.234Z,3625
2017-08-07T09:21:11.698Z,565
2017-08-07T09:22:22.111Z,3680
2017-08-07T09:23:32.318Z,3785
2017-08-07T09:24:42.868Z,3775
2017-08-07T09:25:53.355Z,3605
2017-08-07T09:27:03.817Z,1480
2017-08-07T09:28:14.574Z,1225
2017-08-07T09:29:24.971Z,1840
2017-08-07T09:30:35.111Z,650
2017-08-07T09:31:45.592Z,3150
2017-08-07T09:32:55.783Z,2980
2017-08-07T09:34:06.531Z,3005
2017-08-07T09:35:17.029Z,3140
2017-08-07T09:36:27.483Z,3035
2017-08-07T09:37:37.957Z,550
2017-08-07T09:38:49.408Z,600
2017-08-07T09:40:00.180Z,590
2017-08-07T09:41:11.064Z,665
2017-08-07T09:42:21.533Z,3190
2017-08-07T09:43:32.068Z,3095
2017-08-07T09:44:42.628Z,3110
2017-08-07T09:45:53.523Z,3070
2017-08-07T09:47:04.069Z,3040
2017-08-07T09:48:14.580Z,3220
2017-08-07T09:49:25.118Z,3535
2017-08-07T09:50:35.629Z,1560
2017-08-07T09:51:46.503Z,625
2017-08-07T09:52:56.988Z,665
2017-08-07T09:54:07.148Z,765
2017-08-07T09:55:17.808Z,1190
2017-08-07T09:56:28.349Z,3345
2017-08-07T09:57:39.117Z,760
2017-08-07T09:58:49.622Z,675
2017-08-07T10:00:00.116Z,635
2017-08-07T10:01:10.335Z,615
2017-08-07T10:02:21.139Z,625
2017-08-07T10:03:31.850Z,710
2017-08-07T10:04:42.338Z,1545
2017-08-07T10:05:52.841Z,3620
2017-08-07T10:07:03.362Z,3700
2017-08-07T10:08:14.074Z,3575
2017-08-07T10:09:24.804Z,3565
2017-08-07T10:10:35.367Z,3445
2017-08-07T10:11:45.536Z,805
2017-08-07T10:12:56.006Z,720
2017-08-07T10:14:06.792Z,795
2017-08-07T10:15:17.524Z,1300
2017-08-07T10:16:28.020Z,1125
2017-08-07T10:17:38.488Z,3940
2017-08-07T10:18:48.876Z,3690
2017-08-07T10:19:59.391Z,3740
2017-08-07T10:21:10.162Z,3760
2017-08-07T10:22:20.658Z,3695
2017-08-07T10:23:31.298Z,3595
2017-08-07T10:25:13.649Z,3625
2017-08-07T10:26:24.409Z,3750
2017-08-07T10:27:34.591Z,3830
2017-08-07T10:28:45.075Z,3885
2017-08-07T10:29:55.597Z,3745
2017-08-07T10:31:06.180Z,3785
2017-08-07T10:32:16.457Z,2495
2017-08-07T10:33:26.946Z,705
2017-08-07T10:34:37.427Z,1015
2017-08-07T10:35:47.894Z,885
2017-08-07T10:36:58.472Z,805
2017-08-07T10:38:09.244Z,710
2017-08-07T10:39:19.755Z,735
2017-08-07T10:40:30.222Z,840
2017-08-07T10:41:40.613Z,3620
2017-08-07T10:42:51.111Z,4060
2017-08-07T10:44:01.546Z,2590
2017-08-07T10:45:12.040Z,3115
2017-08-07T10:46:22.605Z,3750
2017-08-07T10:47:32.791Z,4130
2017-08-07T10:48:43.377Z,4110
2017-08-07T10:49:54.181Z,1305
2017-08-07T10:51:04.665Z,800
2017-08-07T10:52:15.264Z,750
2017-08-07T10:53:25.770Z,835
2017-08-07T10:54:36.242Z,2010
2017-08-07T10:55:46.980Z,1290
2017-08-07T10:56:57.529Z,4445
2017-08-07T10:58:08.243Z,4090
2017-08-07T10:59:18.121Z,3900
2017-08-07T11:00:28.800Z,2175
2017-08-07T11:01:39.309Z,1665
2017-08-07T11:02:49.799Z,4075
2017-08-07T11:04:00.194Z,4050
2017-08-07T11:05:10.719Z,4380
2017-08-07T11:06:21.259Z,4470
2017-08-07T11:07:32.066Z,4685
2017-08-07T11:08:42.867Z,4815
2017-08-07T11:09:53.368Z,4740
2017-08-07T11:11:03.859Z,4650
2017-08-07T11:12:14.394Z,4290
2017-08-07T11:13:25.349Z,4165
2017-08-07T11:14:35.809Z,4035
2017-08-07T11:15:46.361Z,3950
2017-08-07T11:16:56.893Z,3735
2017-08-07T11:18:07.411Z,3745
2017-08-07T11:19:18.170Z,3730
2017-08-07T11:20:28.701Z,1315
2017-08-07T11:21:39.225Z,3650
2017-08-07T11:22:49.759Z,3700
2017-08-07T11:24:00.467Z,3895
2017-08-07T11:25:11.248Z,3830
2017-08-07T11:26:21.841Z,945
2017-08-07T11:27:32.485Z,970
2017-08-07T11:28:42.957Z,900
2017-08-07T11:29:53.518Z,880
2017-08-07T11:31:04.274Z,1005
2017-08-07T11:32:14.757Z,860
2017-08-07T11:33:24.967Z,790
2017-08-07T11:34:35.454Z,755
2017-08-07T11:35:45.966Z,780
2017-08-07T11:36:56.781Z,1180
2017-08-07T11:38:07.240Z,975
2017-08-07T11:39:17.776Z,935
2017-08-07T11:40:28.357Z,920
2017-08-07T11:41:38.831Z,960
2017-08-07T11:42:49.533Z,1035
2017-08-07T11:44:00.012Z,1245
2017-08-07T11:45:10.509Z,1690
2017-08-07T11:46:20.992Z,1285
2017-08-07T11:47:31.160Z,2700
2017-08-07T11:48:41.579Z,1250
2017-08-07T11:49:52.174Z,1235
2017-08-07T11:51:02.694Z,1390
2017-08-07T11:52:13.267Z,1285
2017-08-07T11:53:23.744Z,3255
2017-08-07T11:54:34.539Z,3655
2017-08-07T11:55:45.017Z,3790
2017-08-07T11:56:55.523Z,3955
2017-08-07T11:58:06.140Z,915
2017-08-07T11:59:16.667Z,945
2017-08-07T12:00:27.616Z,1750
2017-08-07T12:01:38.139Z,2210
2017-08-07T12:02:48.618Z,1255
2017-08-07T12:03:59.189Z,3915
2017-08-07T12:05:09.748Z,1100
2017-08-07T12:06:20.675Z,845
2017-08-07T12:07:31.189Z,780
2017-08-07T12:08:41.684Z,870
2017-08-07T12:09:51.842Z,3430
2017-08-07T12:11:02.415Z,3345
2017-08-07T12:12:13.146Z,1070
2017-08-07T12:13:23.638Z,3135
2017-08-07T12:14:34.143Z,975
2017-08-07T12:15:44.628Z,865
2017-08-07T12:16:55.146Z,910
2017-08-07T12:18:05.892Z,3230
2017-08-07T12:19:16.402Z,1375
2017-08-07T12:20:26.866Z,1180
2017-08-07T12:21:37.377Z,1120
2017-08-07T12:22:47.863Z,1080
2017-08-07T12:23:58.813Z,3105
2017-08-07T12:25:09.308Z,3195
2017-08-07T12:26:19.786Z,3145
2017-08-07T12:27:30.299Z,3065
2017-08-07T12:28:40.818Z,2955
2017-08-07T12:29:51.535Z,2625
2017-08-07T12:31:01.760Z,3275
2017-08-07T12:32:12.358Z,3275
2017-08-07T12:33:22.856Z,3295
2017-08-07T12:34:32.995Z,1040
2017-08-07T12:35:43.731Z,1980
2017-08-07T12:36:54.272Z,1205
2017-08-07T12:38:04.848Z,3510
2017-08-07T12:39:15.316Z,3460
2017-08-07T12:40:25.826Z,2190
2017-08-07T12:41:36.588Z,1030
2017-08-07T12:42:47.086Z,925
2017-08-07T12:43:57.637Z,3100
2017-08-07T12:45:08.164Z,3090
2017-08-07T12:46:18.637Z,3150
2017-08-07T12:47:29.367Z,2150
2017-08-07T12:48:39.898Z,3200
2017-08-07T12:49:50.449Z,3180
2017-08-07T12:51:00.969Z,3075
2017-08-07T12:52:11.488Z,2975
2017-08-07T12:53:22.261Z,2765
2017-08-07T12:54:32.802Z,2900
2017-08-07T12:55:43.296Z,1575
2017-08-07T12:56:53.448Z,835
2017-08-07T12:58:03.974Z,875
2017-08-07T12:59:14.735Z,3180
2017-08-07T13:00:25.377Z,1060
2017-08-07T13:01:35.858Z,3215
2017-08-07T13:02:46.341Z,3125
2017-08-07T13:03:56.385Z,2955
2017-08-07T13:05:07.348Z,2850
2017-08-07T13:06:17.518Z,3000
2017-08-07T13:07:27.971Z,890
2017-08-07T13:08:38.485Z,745
2017-08-07T13:09:49.085Z,625
2017-08-07T13:10:59.549Z,595
2017-08-07T13:12:10.058Z,620
2017-08-07T13:13:20.549Z,1830
2017-08-07T13:14:31.106Z,840
2017-08-07T13:15:41.785Z,900
2017-08-07T13:16:52.190Z,2540
2017-08-07T13:18:02.688Z,2910
2017-08-07T13:19:12.858Z,3010
2017-08-07T13:20:23.380Z,875
2017-08-07T13:21:33.877Z,795
2017-08-07T13:22:44.619Z,865
2017-08-07T13:23:55.097Z,900
2017-08-07T13:25:05.598Z,3100
2017-08-07T13:26:16.088Z,3050
2017-08-07T13:27:25.930Z,2925
2017-08-07T13:28:36.758Z,2170
2017-08-07T13:29:46.736Z,710
2017-08-07T13:30:57.013Z,635
2017-08-07T13:32:07.465Z,715
2017-08-07T13:33:18.042Z,710
2017-08-07T13:34:28.779Z,735
2017-08-07T13:35:39.246Z,1465
2017-08-07T13:36:49.280Z,715
2017-08-07T13:37:59.784Z,655
2017-08-07T13:39:10.269Z,630
2017-08-07T13:40:21.215Z,600
2017-08-07T13:41:31.699Z,650
2017-08-07T13:42:41.745Z,1705
2017-08-07T13:43:52.230Z,2640
2017-08-07T13:45:02.700Z,3035
2017-08-07T13:46:13.424Z,3110
2017-08-07T13:47:24.177Z,3205
2017-08-07T13:48:34.923Z,3060
2017-08-07T13:49:45.422Z,2935
2017-08-07T13:50:55.917Z,2860
2017-08-07T13:52:06.714Z,1150
2017-08-07T13:53:17.214Z,2895
2017-08-07T13:54:28.337Z,2945
2017-08-07T13:55:38.724Z,2805
2017-08-07T13:56:48.900Z,2730
2017-08-07T13:57:59.309Z,2665
2017-08-07T13:59:09.791Z,2920
2017-08-07T14:00:20.282Z,3130
2017-08-07T14:01:30.759Z,3235
2017-08-07T14:02:41.302Z,3165
2017-08-07T14:03:52.051Z,2915
2017-08-07T14:05:02.552Z,2560
2017-08-07T14:06:13.078Z,2295
2017-08-07T14:07:23.709Z,2215
2017-08-07T14:08:34.170Z,2280
2017-08-07T14:09:44.893Z,2350
2017-08-07T14:10:55.517Z,875
2017-08-07T14:12:05.696Z,2430
2017-08-07T14:13:16.247Z,2365
2017-08-07T14:14:26.742Z,2405
2017-08-07T14:15:37.511Z,2180
2017-08-07T14:16:47.981Z,2315
2017-08-07T14:17:58.588Z,2405
2017-08-07T14:19:08.837Z,2490
2017-08-07T14:20:19.368Z,2090
2017-08-07T14:21:30.110Z,1935
2017-08-07T14:22:40.623Z,2250
2017-08-07T14:23:50.838Z,1370
2017-08-07T14:25:01.364Z,585
2017-08-07T14:26:11.890Z,1235
2017-08-07T14:27:22.619Z,2180
2017-08-07T14:28:33.150Z,2065
2017-08-07T14:29:43.657Z,1985
2017-08-07T14:30:53.861Z,2200
2017-08-07T14:32:04.360Z,2425
2017-08-07T14:33:15.112Z,2650
2017-08-07T14:34:25.739Z,2600
2017-08-07T14:35:36.304Z,2295
2017-08-07T14:36:46.772Z,2110
2017-08-07T14:37:56.546Z,2030
2017-08-07T14:39:07.291Z,1935
2017-08-07T14:40:17.839Z,1965
2017-08-07T14:41:28.392Z,1195
2017-08-07T14:42:38.871Z,2170
2017-08-07T14:43:49.078Z,650
2017-08-07T14:45:00.073Z,620
2017-08-07T14:46:10.590Z,655
2017-08-07T14:47:21.174Z,685
2017-08-07T14:48:31.673Z,640
2017-08-07T14:49:42.155Z,600
2017-08-07T14:50:52.915Z,585
2017-08-07T14:52:03.398Z,585
2017-08-07T14:53:14.122Z,630
2017-08-07T14:54:24.769Z,650
2017-08-07T14:55:35.247Z,1985
2017-08-07T14:56:45.989Z,785
2017-08-07T14:57:56.490Z,1965
2017-08-07T14:59:06.997Z,1655
2017-08-07T15:00:16.531Z,1635
2017-08-07T15:01:27.110Z,755
2017-08-07T15:02:37.607Z,1875
2017-08-07T15:03:48.006Z,1745
2017-08-07T15:04:58.520Z,2155
2017-08-07T15:06:08.685Z,2205
2017-08-07T15:07:19.197Z,1985
2017-08-07T15:08:29.707Z,1765
2017-08-07T15:09:40.179Z,1060
2017-08-07T15:10:50.761Z,575
2017-08-07T15:12:01.244Z,1845
2017-08-07T15:13:11.744Z,1690
2017-08-07T15:14:22.157Z,1665
2017-08-07T15:15:32.655Z,1615
2017-08-07T15:16:43.160Z,1520
2017-08-07T15:17:53.766Z,1425
2017-08-07T15:19:04.295Z,1345
2017-08-07T15:20:15.065Z,1515
2017-08-07T15:21:25.583Z,1690
2017-08-07T15:22:36.071Z,1705
2017-08-07T15:23:46.564Z,1580
2017-08-07T15:24:57.024Z,1465
2017-08-07T15:26:07.786Z,1480
2017-08-07T15:27:18.283Z,1435
2017-08-07T15:28:28.999Z,1650
2017-08-07T15:29:39.473Z,1085
2017-08-07T15:30:50.030Z,1395
2017-08-07T15:32:00.772Z,1605
2017-08-07T15:33:10.945Z,1200
2017-08-07T15:34:21.546Z,450
2017-08-07T15:35:31.805Z,450
2017-08-07T15:36:42.059Z,555
2017-08-07T15:37:52.810Z,530
2017-08-07T15:39:03.279Z,505
2017-08-07T15:40:13.404Z,480
2017-08-07T15:41:23.917Z,460
2017-08-07T15:42:34.424Z,450
2017-08-07T15:43:45.233Z,435
2017-08-07T15:44:55.778Z,435
2017-08-07T15:46:06.305Z,425
2017-08-07T15:47:16.804Z,415
2017-08-07T15:48:27.346Z,415
2017-08-07T15:49:38.072Z,410
2017-08-07T15:50:48.595Z,410
2017-08-07T15:51:59.075Z,410
2017-08-07T15:53:09.589Z,410
2017-08-07T15:54:20.127Z,415
2017-08-07T15:55:30.679Z,420
2017-08-07T15:56:41.208Z,385
2017-08-07T15:57:51.780Z,420
2017-08-07T15:59:02.299Z,420
2017-08-07T16:00:12.880Z,415
2017-08-07T16:01:23.980Z,420
2017-08-07T16:02:34.425Z,405
2017-08-07T16:03:44.947Z,400
2017-08-07T16:04:55.150Z,360
2017-08-07T16:06:05.635Z,325
2017-08-07T16:07:16.359Z,340
2017-08-07T16:08:26.836Z,340
2017-08-07T16:09:37.398Z,325
2017-08-07T16:10:47.905Z,295
2017-08-07T16:11:58.438Z,305
2017-08-07T16:13:09.203Z,310
2017-08-07T16:14:19.735Z,265
2017-08-07T16:15:30.195Z,310
2017-08-07T16:16:40.253Z,310
2017-08-07T16:17:50.764Z,310
2017-08-07T16:19:01.507Z,300